<?xml version='1.0' encoding='UTF-8'?><gpx version="1.1" creator="JPX - https://github.com/jenetics/jpx" xmlns="http://www.topografix.com/GPX/1/1"><trk><trkseg><trkpt lat="42.6694845" lon="11.977693"><ele>591.0</ele><time>2026-04-11T14:04:27.693Z</time></trkpt><trkpt lat="42.6695361" lon="11.9775003"><ele>587.0</ele><time>2026-04-11T14:04:35.666Z</time></trkpt><trkpt lat="42.6695747" lon="11.9774202"><ele>583.0</ele><time>2026-04-11T14:04:36.679Z</time></trkpt><trkpt lat="42.6696416" lon="11.9773311"><ele>579.0</ele><time>2026-04-11T14:04:38.659Z</time></trkpt><trkpt lat="42.6697145" lon="11.9772618"><ele>575.0</ele><time>2026-04-11T14:04:40.66Z</time></trkpt><trkpt lat="42.6697826" lon="11.9771937"><ele>575.0</ele><time>2026-04-11T14:04:42.674Z</time></trkpt><trkpt lat="42.6698353" lon="11.9771287"><ele>575.0</ele><time>2026-04-11T14:04:44.716Z</time></trkpt><trkpt lat="42.669913" lon="11.9770549"><ele>575.0</ele><time>2026-04-11T14:04:47.593Z</time></trkpt><trkpt lat="42.6700334" lon="11.9769768"><ele>575.0</ele><time>2026-04-11T14:04:48.679Z</time></trkpt><trkpt lat="42.670109" lon="11.9769377"><ele>575.0</ele><time>2026-04-11T14:04:49.665Z</time></trkpt><trkpt lat="42.6701895" lon="11.9768934"><ele>575.0</ele><time>2026-04-11T14:04:50.672Z</time></trkpt><trkpt lat="42.670266" lon="11.9768428"><ele>575.0</ele><time>2026-04-11T14:04:51.667Z</time></trkpt><trkpt lat="42.6703356" lon="11.9767962"><ele>575.0</ele><time>2026-04-11T14:04:52.661Z</time></trkpt><trkpt lat="42.6703988" lon="11.9767566"><ele>575.0</ele><time>2026-04-11T14:04:53.67Z</time></trkpt><trkpt lat="42.6705155" lon="11.9766842"><ele>575.0</ele><time>2026-04-11T14:04:55.664Z</time></trkpt><trkpt lat="42.6706284" lon="11.9766397"><ele>577.2</ele><time>2026-04-11T14:04:57.647Z</time></trkpt><trkpt lat="42.6707449" lon="11.97661"><ele>579.4</ele><time>2026-04-11T14:04:59.671Z</time></trkpt><trkpt lat="42.6708161" lon="11.9765921"><ele>581.6</ele><time>2026-04-11T14:05:00.669Z</time></trkpt><trkpt lat="42.6708854" lon="11.9765737"><ele>583.8</ele><time>2026-04-11T14:05:01.652Z</time></trkpt><trkpt lat="42.6709958" lon="11.9765521"><ele>586.0</ele><time>2026-04-11T14:05:03.685Z</time></trkpt><trkpt lat="42.6711097" lon="11.9765391"><ele>589.8333333333334</ele><time>2026-04-11T14:05:05.676Z</time></trkpt><trkpt lat="42.6711732" lon="11.9765341"><ele>593.6666666666667</ele><time>2026-04-11T14:05:06.672Z</time></trkpt><trkpt lat="42.6712367" lon="11.9765197"><ele>597.5</ele><time>2026-04-11T14:05:07.656Z</time></trkpt><trkpt lat="42.6713066" lon="11.9764968"><ele>601.3333333333334</ele><time>2026-04-11T14:05:08.661Z</time></trkpt><trkpt lat="42.6713786" lon="11.9764723"><ele>605.1666666666666</ele><time>2026-04-11T14:05:09.679Z</time></trkpt><trkpt lat="42.6714439" lon="11.9764456"><ele>609.0</ele><time>2026-04-11T14:05:10.664Z</time></trkpt><trkpt lat="42.6715542" lon="11.9763999"><ele>609.0</ele><time>2026-04-11T14:05:12.674Z</time></trkpt><trkpt lat="42.671675" lon="11.9763638"><ele>609.0</ele><time>2026-04-11T14:05:14.688Z</time></trkpt><trkpt lat="42.6717746" lon="11.9763491"><ele>609.0</ele><time>2026-04-11T14:05:16.662Z</time></trkpt><trkpt lat="42.6718517" lon="11.9763282"><ele>609.0</ele><time>2026-04-11T14:05:18.659Z</time></trkpt><trkpt lat="42.6719481" lon="11.9763157"><ele>609.0</ele><time>2026-04-11T14:05:20.666Z</time></trkpt><trkpt lat="42.6720623" lon="11.976315"><ele>613.0</ele><time>2026-04-11T14:05:22.666Z</time></trkpt><trkpt lat="42.6721775" lon="11.9763305"><ele>617.0</ele><time>2026-04-11T14:05:24.666Z</time></trkpt><trkpt lat="42.6722462" lon="11.9763402"><ele>621.0</ele><time>2026-04-11T14:05:25.653Z</time></trkpt><trkpt lat="42.6723586" lon="11.9763339"><ele>625.0</ele><time>2026-04-11T14:05:27.672Z</time></trkpt><trkpt lat="42.6724792" lon="11.9763308"><ele>629.0</ele><time>2026-04-11T14:05:29.674Z</time></trkpt><trkpt lat="42.6725487" lon="11.9763357"><ele>629.0</ele><time>2026-04-11T14:05:30.675Z</time></trkpt><trkpt lat="42.6726414" lon="11.9763339"><ele>629.0</ele><time>2026-04-11T14:05:32.666Z</time></trkpt><trkpt lat="42.6727389" lon="11.9763231"><ele>629.0</ele><time>2026-04-11T14:05:34.664Z</time></trkpt><trkpt lat="42.6728665" lon="11.976325"><ele>629.0</ele><time>2026-04-11T14:05:36.673Z</time></trkpt><trkpt lat="42.6729377" lon="11.976324"><ele>629.0</ele><time>2026-04-11T14:05:37.662Z</time></trkpt><trkpt lat="42.6730013" lon="11.9763244"><ele>631.0</ele><time>2026-04-11T14:05:38.656Z</time></trkpt><trkpt lat="42.6731104" lon="11.9763265"><ele>633.0</ele><time>2026-04-11T14:05:40.664Z</time></trkpt><trkpt lat="42.6732071" lon="11.9763234"><ele>635.0</ele><time>2026-04-11T14:05:42.652Z</time></trkpt><trkpt lat="42.6732818" lon="11.9763244"><ele>637.0</ele><time>2026-04-11T14:05:43.67Z</time></trkpt><trkpt lat="42.6733649" lon="11.9763086"><ele>639.0</ele><time>2026-04-11T14:05:44.679Z</time></trkpt><trkpt lat="42.6734418" lon="11.9762847"><ele>641.0</ele><time>2026-04-11T14:05:45.664Z</time></trkpt><trkpt lat="42.6735192" lon="11.9762462"><ele>641.0</ele><time>2026-04-11T14:05:46.687Z</time></trkpt><trkpt lat="42.6735878" lon="11.9762106"><ele>641.0</ele><time>2026-04-11T14:05:47.675Z</time></trkpt><trkpt lat="42.6736493" lon="11.9761727"><ele>641.0</ele><time>2026-04-11T14:05:48.669Z</time></trkpt><trkpt lat="42.6737075" lon="11.9761374"><ele>641.0</ele><time>2026-04-11T14:05:49.645Z</time></trkpt><trkpt lat="42.6737721" lon="11.9760929"><ele>641.0</ele><time>2026-04-11T14:05:50.676Z</time></trkpt><trkpt lat="42.6738404" lon="11.9760774"><ele>641.0</ele><time>2026-04-11T14:05:51.654Z</time></trkpt><trkpt lat="42.6739153" lon="11.9760945"><ele>641.0</ele><time>2026-04-11T14:05:52.659Z</time></trkpt><trkpt lat="42.6739926" lon="11.9761245"><ele>641.5999999999999</ele><time>2026-04-11T14:05:53.666Z</time></trkpt><trkpt lat="42.6740575" lon="11.9761622"><ele>642.2</ele><time>2026-04-11T14:05:54.662Z</time></trkpt><trkpt lat="42.6741399" lon="11.9762055"><ele>642.8</ele><time>2026-04-11T14:05:55.674Z</time></trkpt><trkpt lat="42.6742479" lon="11.9762293"><ele>643.4000000000001</ele><time>2026-04-11T14:05:56.691Z</time></trkpt><trkpt lat="42.6743701" lon="11.976235"><ele>644.0</ele><time>2026-04-11T14:05:57.647Z</time></trkpt><trkpt lat="42.6745228" lon="11.9762224"><ele>644.0</ele><time>2026-04-11T14:05:58.685Z</time></trkpt><trkpt lat="42.6747034" lon="11.9762209"><ele>644.0</ele><time>2026-04-11T14:05:59.654Z</time></trkpt><trkpt lat="42.6748676" lon="11.976229"><ele>644.0</ele><time>2026-04-11T14:06:00.657Z</time></trkpt><trkpt lat="42.6750277" lon="11.9762422"><ele>644.0</ele><time>2026-04-11T14:06:01.659Z</time></trkpt><trkpt lat="42.6751899" lon="11.9762473"><ele>644.0</ele><time>2026-04-11T14:06:02.645Z</time></trkpt><trkpt lat="42.675324" lon="11.9762662"><ele>644.0</ele><time>2026-04-11T14:06:03.652Z</time></trkpt><trkpt lat="42.6754593" lon="11.9762967"><ele>644.0</ele><time>2026-04-11T14:06:04.657Z</time></trkpt><trkpt lat="42.6755997" lon="11.9763295"><ele>642.6666666666666</ele><time>2026-04-11T14:06:05.663Z</time></trkpt><trkpt lat="42.6757431" lon="11.9763709"><ele>641.3333333333334</ele><time>2026-04-11T14:06:06.652Z</time></trkpt><trkpt lat="42.6759001" lon="11.9764122"><ele>640.0</ele><time>2026-04-11T14:06:07.659Z</time></trkpt><trkpt lat="42.6760624" lon="11.9764599"><ele>636.0</ele><time>2026-04-11T14:06:08.667Z</time></trkpt><trkpt lat="42.6762275" lon="11.9765128"><ele>632.0</ele><time>2026-04-11T14:06:09.66Z</time></trkpt><trkpt lat="42.6763884" lon="11.976569"><ele>628.0</ele><time>2026-04-11T14:06:10.669Z</time></trkpt><trkpt lat="42.6765448" lon="11.9766267"><ele>628.0</ele><time>2026-04-11T14:06:11.663Z</time></trkpt><trkpt lat="42.6766953" lon="11.9766748"><ele>628.0</ele><time>2026-04-11T14:06:12.68Z</time></trkpt><trkpt lat="42.6768464" lon="11.9767151"><ele>628.0</ele><time>2026-04-11T14:06:13.682Z</time></trkpt><trkpt lat="42.676991" lon="11.9767368"><ele>630.3333333333334</ele><time>2026-04-11T14:06:14.675Z</time></trkpt><trkpt lat="42.6771397" lon="11.9767338"><ele>632.6666666666666</ele><time>2026-04-11T14:06:15.665Z</time></trkpt><trkpt lat="42.6772895" lon="11.9766901"><ele>635.0</ele><time>2026-04-11T14:06:16.66Z</time></trkpt><trkpt lat="42.6774374" lon="11.976602"><ele>633.0</ele><time>2026-04-11T14:06:17.669Z</time></trkpt><trkpt lat="42.6775831" lon="11.9764795"><ele>631.0</ele><time>2026-04-11T14:06:18.669Z</time></trkpt><trkpt lat="42.6777357" lon="11.9763415"><ele>629.0</ele><time>2026-04-11T14:06:19.664Z</time></trkpt><trkpt lat="42.6778919" lon="11.9762024"><ele>629.0</ele><time>2026-04-11T14:06:20.655Z</time></trkpt><trkpt lat="42.6780784" lon="11.976102"><ele>629.0</ele><time>2026-04-11T14:06:21.676Z</time></trkpt><trkpt lat="42.6782747" lon="11.9760008"><ele>629.0</ele><time>2026-04-11T14:06:22.666Z</time></trkpt><trkpt lat="42.67848" lon="11.9759122"><ele>626.6666666666666</ele><time>2026-04-11T14:06:23.667Z</time></trkpt><trkpt lat="42.6786776" lon="11.9758107"><ele>624.3333333333334</ele><time>2026-04-11T14:06:24.672Z</time></trkpt><trkpt lat="42.678878" lon="11.975716"><ele>622.0</ele><time>2026-04-11T14:06:25.663Z</time></trkpt><trkpt lat="42.6790851" lon="11.9756202"><ele>622.0</ele><time>2026-04-11T14:06:26.669Z</time></trkpt><trkpt lat="42.6792851" lon="11.9755177"><ele>622.0</ele><time>2026-04-11T14:06:27.686Z</time></trkpt><trkpt lat="42.6794868" lon="11.9754224"><ele>622.0</ele><time>2026-04-11T14:06:28.662Z</time></trkpt><trkpt lat="42.6796901" lon="11.9753278"><ele>626.0</ele><time>2026-04-11T14:06:29.668Z</time></trkpt><trkpt lat="42.6798956" lon="11.9752339"><ele>630.0</ele><time>2026-04-11T14:06:30.669Z</time></trkpt><trkpt lat="42.6800984" lon="11.9751454"><ele>634.0</ele><time>2026-04-11T14:06:31.661Z</time></trkpt><trkpt lat="42.6802842" lon="11.9750598"><ele>630.0</ele><time>2026-04-11T14:06:32.669Z</time></trkpt><trkpt lat="42.680455" lon="11.9749839"><ele>626.0</ele><time>2026-04-11T14:06:33.662Z</time></trkpt><trkpt lat="42.6806147" lon="11.9749276"><ele>622.0</ele><time>2026-04-11T14:06:34.649Z</time></trkpt><trkpt lat="42.6807673" lon="11.9748919"><ele>622.0</ele><time>2026-04-11T14:06:35.668Z</time></trkpt><trkpt lat="42.6809156" lon="11.9748842"><ele>622.0</ele><time>2026-04-11T14:06:36.65Z</time></trkpt><trkpt lat="42.6810628" lon="11.9748993"><ele>622.0</ele><time>2026-04-11T14:06:37.657Z</time></trkpt><trkpt lat="42.6812023" lon="11.9749229"><ele>622.0</ele><time>2026-04-11T14:06:38.672Z</time></trkpt><trkpt lat="42.6813276" lon="11.9749953"><ele>622.75</ele><time>2026-04-11T14:06:39.663Z</time></trkpt><trkpt lat="42.6814401" lon="11.9750942"><ele>623.5</ele><time>2026-04-11T14:06:40.674Z</time></trkpt><trkpt lat="42.6815419" lon="11.9752111"><ele>624.25</ele><time>2026-04-11T14:06:41.672Z</time></trkpt><trkpt lat="42.6816229" lon="11.9753564"><ele>625.0</ele><time>2026-04-11T14:06:42.674Z</time></trkpt><trkpt lat="42.6816674" lon="11.9755427"><ele>625.0</ele><time>2026-04-11T14:06:43.666Z</time></trkpt><trkpt lat="42.681721" lon="11.975741"><ele>625.0</ele><time>2026-04-11T14:06:44.677Z</time></trkpt><trkpt lat="42.6817931" lon="11.9759297"><ele>625.0</ele><time>2026-04-11T14:06:45.691Z</time></trkpt><trkpt lat="42.6818935" lon="11.9761145"><ele>624.0</ele><time>2026-04-11T14:06:46.666Z</time></trkpt><trkpt lat="42.6820107" lon="11.976278"><ele>623.0</ele><time>2026-04-11T14:06:47.669Z</time></trkpt><trkpt lat="42.6821595" lon="11.9764192"><ele>622.0</ele><time>2026-04-11T14:06:48.664Z</time></trkpt><trkpt lat="42.6823148" lon="11.9765505"><ele>622.3333333333334</ele><time>2026-04-11T14:06:49.662Z</time></trkpt><trkpt lat="42.6824721" lon="11.9766878"><ele>622.6666666666666</ele><time>2026-04-11T14:06:50.658Z</time></trkpt><trkpt lat="42.6826247" lon="11.9768265"><ele>623.0</ele><time>2026-04-11T14:06:51.656Z</time></trkpt><trkpt lat="42.6827652" lon="11.9769747"><ele>620.6666666666666</ele><time>2026-04-11T14:06:52.646Z</time></trkpt><trkpt lat="42.6828907" lon="11.9771384"><ele>618.3333333333334</ele><time>2026-04-11T14:06:53.668Z</time></trkpt><trkpt lat="42.6830111" lon="11.9773264"><ele>616.0</ele><time>2026-04-11T14:06:54.645Z</time></trkpt><trkpt lat="42.6831287" lon="11.9775343"><ele>616.0</ele><time>2026-04-11T14:06:55.648Z</time></trkpt><trkpt lat="42.6832451" lon="11.9777561"><ele>616.0</ele><time>2026-04-11T14:06:56.66Z</time></trkpt><trkpt lat="42.6833589" lon="11.9779829"><ele>616.0</ele><time>2026-04-11T14:06:57.672Z</time></trkpt><trkpt lat="42.6834736" lon="11.9782101"><ele>616.6666666666667</ele><time>2026-04-11T14:06:58.667Z</time></trkpt><trkpt lat="42.6835861" lon="11.9784365"><ele>617.3333333333334</ele><time>2026-04-11T14:06:59.667Z</time></trkpt><trkpt lat="42.6836907" lon="11.9786543"><ele>618.0</ele><time>2026-04-11T14:07:00.662Z</time></trkpt><trkpt lat="42.6837966" lon="11.9788587"><ele>616.6666666666666</ele><time>2026-04-11T14:07:01.654Z</time></trkpt><trkpt lat="42.6839157" lon="11.9790482"><ele>615.3333333333333</ele><time>2026-04-11T14:07:02.659Z</time></trkpt><trkpt lat="42.6840513" lon="11.9792099"><ele>614.0</ele><time>2026-04-11T14:07:03.662Z</time></trkpt><trkpt lat="42.6842111" lon="11.9793393"><ele>614.0</ele><time>2026-04-11T14:07:04.665Z</time></trkpt><trkpt lat="42.6843871" lon="11.9794452"><ele>614.0</ele><time>2026-04-11T14:07:05.658Z</time></trkpt><trkpt lat="42.6845611" lon="11.979526"><ele>614.0</ele><time>2026-04-11T14:07:06.651Z</time></trkpt><trkpt lat="42.6847283" lon="11.9795764"><ele>611.3333333333333</ele><time>2026-04-11T14:07:07.664Z</time></trkpt><trkpt lat="42.6848882" lon="11.9796147"><ele>608.6666666666666</ele><time>2026-04-11T14:07:08.658Z</time></trkpt><trkpt lat="42.6850418" lon="11.979634"><ele>606.0</ele><time>2026-04-11T14:07:09.654Z</time></trkpt><trkpt lat="42.6851756" lon="11.9796331"><ele>606.5</ele><time>2026-04-11T14:07:10.653Z</time></trkpt><trkpt lat="42.6852898" lon="11.979636"><ele>607.0</ele><time>2026-04-11T14:07:11.651Z</time></trkpt><trkpt lat="42.6853768" lon="11.9796125"><ele>607.5</ele><time>2026-04-11T14:07:12.66Z</time></trkpt><trkpt lat="42.685441" lon="11.9795949"><ele>608.0</ele><time>2026-04-11T14:07:13.655Z</time></trkpt><trkpt lat="42.6854992" lon="11.979628"><ele>608.5</ele><time>2026-04-11T14:07:15.66Z</time></trkpt><trkpt lat="42.6856013" lon="11.9796129"><ele>609.0</ele><time>2026-04-11T14:07:18.651Z</time></trkpt><trkpt lat="42.6857111" lon="11.9795203"><ele>609.0</ele><time>2026-04-11T14:07:20.666Z</time></trkpt><trkpt lat="42.6857932" lon="11.9794696"><ele>609.0</ele><time>2026-04-11T14:07:21.665Z</time></trkpt><trkpt lat="42.6858855" lon="11.9794353"><ele>609.0</ele><time>2026-04-11T14:07:22.672Z</time></trkpt><trkpt lat="42.6859834" lon="11.9794135"><ele>609.0</ele><time>2026-04-11T14:07:23.657Z</time></trkpt><trkpt lat="42.686083" lon="11.9794247"><ele>609.0</ele><time>2026-04-11T14:07:24.662Z</time></trkpt><trkpt lat="42.6861823" lon="11.9794471"><ele>608.0</ele><time>2026-04-11T14:07:25.651Z</time></trkpt><trkpt lat="42.6862744" lon="11.9794723"><ele>607.0</ele><time>2026-04-11T14:07:26.661Z</time></trkpt><trkpt lat="42.6863632" lon="11.9795009"><ele>606.0</ele><time>2026-04-11T14:07:27.65Z</time></trkpt><trkpt lat="42.6864626" lon="11.9795463"><ele>605.0</ele><time>2026-04-11T14:07:28.656Z</time></trkpt><trkpt lat="42.6865691" lon="11.9796001"><ele>604.0</ele><time>2026-04-11T14:07:29.662Z</time></trkpt><trkpt lat="42.686655" lon="11.9796502"><ele>604.0</ele><time>2026-04-11T14:07:30.645Z</time></trkpt><trkpt lat="42.6867548" lon="11.9797021"><ele>604.0</ele><time>2026-04-11T14:07:31.657Z</time></trkpt><trkpt lat="42.6868443" lon="11.979746"><ele>604.0</ele><time>2026-04-11T14:07:32.664Z</time></trkpt><trkpt lat="42.6869426" lon="11.9797895"><ele>604.0</ele><time>2026-04-11T14:07:33.668Z</time></trkpt><trkpt lat="42.6870302" lon="11.9798508"><ele>604.0</ele><time>2026-04-11T14:07:34.664Z</time></trkpt><trkpt lat="42.6871192" lon="11.9799081"><ele>602.0</ele><time>2026-04-11T14:07:35.655Z</time></trkpt><trkpt lat="42.6872061" lon="11.9799732"><ele>600.0</ele><time>2026-04-11T14:07:36.659Z</time></trkpt><trkpt lat="42.6873015" lon="11.9800366"><ele>598.0</ele><time>2026-04-11T14:07:37.657Z</time></trkpt><trkpt lat="42.6874138" lon="11.9800968"><ele>596.0</ele><time>2026-04-11T14:07:38.665Z</time></trkpt><trkpt lat="42.6875107" lon="11.9801573"><ele>594.0</ele><time>2026-04-11T14:07:39.654Z</time></trkpt><trkpt lat="42.6876201" lon="11.9802265"><ele>593.75</ele><time>2026-04-11T14:07:40.665Z</time></trkpt><trkpt lat="42.6877223" lon="11.980282"><ele>593.5</ele><time>2026-04-11T14:07:41.661Z</time></trkpt><trkpt lat="42.687829" lon="11.9803405"><ele>593.25</ele><time>2026-04-11T14:07:42.65Z</time></trkpt><trkpt lat="42.6879469" lon="11.9803995"><ele>593.0</ele><time>2026-04-11T14:07:43.64Z</time></trkpt><trkpt lat="42.6880608" lon="11.9804683"><ele>591.25</ele><time>2026-04-11T14:07:44.663Z</time></trkpt><trkpt lat="42.6881622" lon="11.9805307"><ele>589.5</ele><time>2026-04-11T14:07:45.664Z</time></trkpt><trkpt lat="42.6882653" lon="11.9806015"><ele>587.75</ele><time>2026-04-11T14:07:46.656Z</time></trkpt><trkpt lat="42.6883799" lon="11.980666"><ele>586.0</ele><time>2026-04-11T14:07:47.662Z</time></trkpt><trkpt lat="42.6885324" lon="11.9807444"><ele>585.0</ele><time>2026-04-11T14:07:48.656Z</time></trkpt><trkpt lat="42.6886816" lon="11.9808247"><ele>584.0</ele><time>2026-04-11T14:07:49.664Z</time></trkpt><trkpt lat="42.6888044" lon="11.9808955"><ele>583.0</ele><time>2026-04-11T14:07:50.657Z</time></trkpt><trkpt lat="42.6889191" lon="11.9809629"><ele>582.0</ele><time>2026-04-11T14:07:51.67Z</time></trkpt><trkpt lat="42.6890362" lon="11.9810193"><ele>582.0</ele><time>2026-04-11T14:07:52.648Z</time></trkpt><trkpt lat="42.6891502" lon="11.9810775"><ele>582.0</ele><time>2026-04-11T14:07:53.669Z</time></trkpt><trkpt lat="42.6892705" lon="11.9811436"><ele>582.0</ele><time>2026-04-11T14:07:54.67Z</time></trkpt><trkpt lat="42.6894039" lon="11.9812303"><ele>582.0</ele><time>2026-04-11T14:07:55.663Z</time></trkpt><trkpt lat="42.689532" lon="11.9813403"><ele>582.3333333333334</ele><time>2026-04-11T14:07:56.686Z</time></trkpt><trkpt lat="42.6896584" lon="11.9814765"><ele>582.6666666666667</ele><time>2026-04-11T14:07:57.671Z</time></trkpt><trkpt lat="42.6897916" lon="11.9815984"><ele>583.0</ele><time>2026-04-11T14:07:58.664Z</time></trkpt><trkpt lat="42.6899346" lon="11.9817317"><ele>582.3333333333334</ele><time>2026-04-11T14:07:59.672Z</time></trkpt><trkpt lat="42.6900889" lon="11.9818788"><ele>581.6666666666666</ele><time>2026-04-11T14:08:00.65Z</time></trkpt><trkpt lat="42.6902471" lon="11.9820246"><ele>581.0</ele><time>2026-04-11T14:08:01.67Z</time></trkpt><trkpt lat="42.6904038" lon="11.9821664"><ele>581.0</ele><time>2026-04-11T14:08:02.677Z</time></trkpt><trkpt lat="42.6905532" lon="11.9822995"><ele>581.0</ele><time>2026-04-11T14:08:03.665Z</time></trkpt><trkpt lat="42.6907145" lon="11.9824094"><ele>581.0</ele><time>2026-04-11T14:08:04.676Z</time></trkpt><trkpt lat="42.6908836" lon="11.982498"><ele>581.6666666666666</ele><time>2026-04-11T14:08:05.67Z</time></trkpt><trkpt lat="42.6910612" lon="11.9825571"><ele>582.3333333333334</ele><time>2026-04-11T14:08:06.678Z</time></trkpt><trkpt lat="42.6912419" lon="11.9825905"><ele>583.0</ele><time>2026-04-11T14:08:07.682Z</time></trkpt><trkpt lat="42.6914283" lon="11.9826123"><ele>578.6666666666667</ele><time>2026-04-11T14:08:08.677Z</time></trkpt><trkpt lat="42.691614" lon="11.9826347"><ele>574.3333333333334</ele><time>2026-04-11T14:08:09.693Z</time></trkpt><trkpt lat="42.6918034" lon="11.9826531"><ele>570.0</ele><time>2026-04-11T14:08:10.669Z</time></trkpt><trkpt lat="42.691994" lon="11.9826698"><ele>570.0</ele><time>2026-04-11T14:08:11.68Z</time></trkpt><trkpt lat="42.6921867" lon="11.9826868"><ele>570.0</ele><time>2026-04-11T14:08:12.67Z</time></trkpt><trkpt lat="42.6923795" lon="11.9827039"><ele>570.0</ele><time>2026-04-11T14:08:13.682Z</time></trkpt><trkpt lat="42.6925767" lon="11.9827193"><ele>569.3333333333334</ele><time>2026-04-11T14:08:14.669Z</time></trkpt><trkpt lat="42.6927754" lon="11.9827364"><ele>568.6666666666667</ele><time>2026-04-11T14:08:15.679Z</time></trkpt><trkpt lat="42.6929759" lon="11.9827528"><ele>568.0</ele><time>2026-04-11T14:08:16.666Z</time></trkpt><trkpt lat="42.6931764" lon="11.9827637"><ele>568.0</ele><time>2026-04-11T14:08:17.668Z</time></trkpt><trkpt lat="42.6933793" lon="11.9827685"><ele>568.0</ele><time>2026-04-11T14:08:18.69Z</time></trkpt><trkpt lat="42.6935825" lon="11.982763"><ele>568.0</ele><time>2026-04-11T14:08:19.687Z</time></trkpt><trkpt lat="42.6937854" lon="11.9827382"><ele>566.3333333333334</ele><time>2026-04-11T14:08:20.684Z</time></trkpt><trkpt lat="42.6939859" lon="11.9826972"><ele>564.6666666666666</ele><time>2026-04-11T14:08:21.675Z</time></trkpt><trkpt lat="42.6941865" lon="11.9826505"><ele>563.0</ele><time>2026-04-11T14:08:22.684Z</time></trkpt><trkpt lat="42.694389" lon="11.9826019"><ele>562.6666666666666</ele><time>2026-04-11T14:08:23.684Z</time></trkpt><trkpt lat="42.6945935" lon="11.9825516"><ele>562.3333333333334</ele><time>2026-04-11T14:08:24.669Z</time></trkpt><trkpt lat="42.694799" lon="11.9824978"><ele>562.0</ele><time>2026-04-11T14:08:25.673Z</time></trkpt><trkpt lat="42.695005" lon="11.9824429"><ele>562.0</ele><time>2026-04-11T14:08:26.667Z</time></trkpt><trkpt lat="42.6952116" lon="11.9823896"><ele>562.0</ele><time>2026-04-11T14:08:27.664Z</time></trkpt><trkpt lat="42.6954175" lon="11.9823376"><ele>562.0</ele><time>2026-04-11T14:08:28.672Z</time></trkpt><trkpt lat="42.695622" lon="11.9822859"><ele>559.3333333333334</ele><time>2026-04-11T14:08:29.667Z</time></trkpt><trkpt lat="42.6958222" lon="11.9822324"><ele>556.6666666666666</ele><time>2026-04-11T14:08:30.661Z</time></trkpt><trkpt lat="42.6960204" lon="11.9821769"><ele>554.0</ele><time>2026-04-11T14:08:31.66Z</time></trkpt><trkpt lat="42.6962133" lon="11.9821254"><ele>551.0</ele><time>2026-04-11T14:08:32.688Z</time></trkpt><trkpt lat="42.696403" lon="11.9820658"><ele>548.0</ele><time>2026-04-11T14:08:33.659Z</time></trkpt><trkpt lat="42.6965897" lon="11.9819917"><ele>545.0</ele><time>2026-04-11T14:08:34.668Z</time></trkpt><trkpt lat="42.6967726" lon="11.9819079"><ele>544.0</ele><time>2026-04-11T14:08:35.659Z</time></trkpt><trkpt lat="42.6969534" lon="11.9818205"><ele>543.0</ele><time>2026-04-11T14:08:36.671Z</time></trkpt><trkpt lat="42.6971359" lon="11.9817376"><ele>542.0</ele><time>2026-04-11T14:08:37.68Z</time></trkpt><trkpt lat="42.6973138" lon="11.9816477"><ele>542.0</ele><time>2026-04-11T14:08:38.654Z</time></trkpt><trkpt lat="42.6974896" lon="11.9815484"><ele>542.0</ele><time>2026-04-11T14:08:39.663Z</time></trkpt><trkpt lat="42.6976644" lon="11.9814522"><ele>542.0</ele><time>2026-04-11T14:08:40.659Z</time></trkpt><trkpt lat="42.6978413" lon="11.9813586"><ele>542.3333333333333</ele><time>2026-04-11T14:08:41.67Z</time></trkpt><trkpt lat="42.6980173" lon="11.9812703"><ele>542.6666666666666</ele><time>2026-04-11T14:08:42.655Z</time></trkpt><trkpt lat="42.6981938" lon="11.9811787"><ele>543.0</ele><time>2026-04-11T14:08:43.68Z</time></trkpt><trkpt lat="42.6983666" lon="11.9810962"><ele>543.0</ele><time>2026-04-11T14:08:44.678Z</time></trkpt><trkpt lat="42.6985427" lon="11.9810121"><ele>543.0</ele><time>2026-04-11T14:08:45.661Z</time></trkpt><trkpt lat="42.6987281" lon="11.9809518"><ele>543.0</ele><time>2026-04-11T14:08:46.693Z</time></trkpt><trkpt lat="42.6989155" lon="11.9808965"><ele>542.0</ele><time>2026-04-11T14:08:47.678Z</time></trkpt><trkpt lat="42.6991005" lon="11.9808746"><ele>541.0</ele><time>2026-04-11T14:08:48.675Z</time></trkpt><trkpt lat="42.6992895" lon="11.9808571"><ele>540.0</ele><time>2026-04-11T14:08:49.654Z</time></trkpt><trkpt lat="42.6994778" lon="11.9808481"><ele>539.6666666666666</ele><time>2026-04-11T14:08:50.677Z</time></trkpt><trkpt lat="42.6996709" lon="11.9808359"><ele>539.3333333333333</ele><time>2026-04-11T14:08:51.659Z</time></trkpt><trkpt lat="42.6998659" lon="11.980822"><ele>539.0</ele><time>2026-04-11T14:08:52.665Z</time></trkpt><trkpt lat="42.7000606" lon="11.9808126"><ele>539.0</ele><time>2026-04-11T14:08:53.669Z</time></trkpt><trkpt lat="42.7002568" lon="11.980801"><ele>539.0</ele><time>2026-04-11T14:08:54.681Z</time></trkpt><trkpt lat="42.7004544" lon="11.9807895"><ele>539.0</ele><time>2026-04-11T14:08:55.666Z</time></trkpt><trkpt lat="42.7006499" lon="11.980771"><ele>539.0</ele><time>2026-04-11T14:08:56.671Z</time></trkpt><trkpt lat="42.7008432" lon="11.9807574"><ele>539.0</ele><time>2026-04-11T14:08:57.676Z</time></trkpt><trkpt lat="42.7010365" lon="11.9807425"><ele>539.0</ele><time>2026-04-11T14:08:58.687Z</time></trkpt><trkpt lat="42.7012283" lon="11.9807337"><ele>538.3333333333333</ele><time>2026-04-11T14:08:59.672Z</time></trkpt><trkpt lat="42.7014252" lon="11.980721"><ele>537.6666666666666</ele><time>2026-04-11T14:09:00.658Z</time></trkpt><trkpt lat="42.7016194" lon="11.9807107"><ele>537.0</ele><time>2026-04-11T14:09:01.662Z</time></trkpt><trkpt lat="42.7018057" lon="11.9806976"><ele>537.6666666666666</ele><time>2026-04-11T14:09:02.668Z</time></trkpt><trkpt lat="42.7019954" lon="11.9806794"><ele>538.3333333333333</ele><time>2026-04-11T14:09:03.666Z</time></trkpt><trkpt lat="42.7021775" lon="11.9806671"><ele>539.0</ele><time>2026-04-11T14:09:04.666Z</time></trkpt><trkpt lat="42.7023478" lon="11.9806562"><ele>539.0</ele><time>2026-04-11T14:09:05.67Z</time></trkpt><trkpt lat="42.702507" lon="11.9806435"><ele>539.0</ele><time>2026-04-11T14:09:06.672Z</time></trkpt><trkpt lat="42.7026621" lon="11.9806322"><ele>539.0</ele><time>2026-04-11T14:09:07.672Z</time></trkpt><trkpt lat="42.7028053" lon="11.9806238"><ele>539.4</ele><time>2026-04-11T14:09:08.656Z</time></trkpt><trkpt lat="42.7029311" lon="11.9806156"><ele>539.8</ele><time>2026-04-11T14:09:09.668Z</time></trkpt><trkpt lat="42.7030359" lon="11.9806088"><ele>540.2</ele><time>2026-04-11T14:09:10.667Z</time></trkpt><trkpt lat="42.7031278" lon="11.9806074"><ele>540.6</ele><time>2026-04-11T14:09:11.658Z</time></trkpt><trkpt lat="42.7032006" lon="11.9805901"><ele>541.0</ele><time>2026-04-11T14:09:12.672Z</time></trkpt><trkpt lat="42.7032823" lon="11.9806249"><ele>541.0</ele><time>2026-04-11T14:09:15.662Z</time></trkpt><trkpt lat="42.703374" lon="11.9806803"><ele>541.0</ele><time>2026-04-11T14:09:17.663Z</time></trkpt><trkpt lat="42.7034579" lon="11.980695"><ele>541.0</ele><time>2026-04-11T14:09:18.664Z</time></trkpt><trkpt lat="42.7035439" lon="11.9807115"><ele>541.0</ele><time>2026-04-11T14:09:19.676Z</time></trkpt><trkpt lat="42.7036386" lon="11.9807393"><ele>541.0</ele><time>2026-04-11T14:09:20.671Z</time></trkpt><trkpt lat="42.7037469" lon="11.9807957"><ele>541.0</ele><time>2026-04-11T14:09:21.673Z</time></trkpt><trkpt lat="42.7038623" lon="11.9808567"><ele>541.0</ele><time>2026-04-11T14:09:22.663Z</time></trkpt><trkpt lat="42.7039779" lon="11.9809049"><ele>541.0</ele><time>2026-04-11T14:09:23.664Z</time></trkpt><trkpt lat="42.7040823" lon="11.9809176"><ele>541.0</ele><time>2026-04-11T14:09:24.681Z</time></trkpt><trkpt lat="42.7041819" lon="11.9809272"><ele>541.0</ele><time>2026-04-11T14:09:25.654Z</time></trkpt><trkpt lat="42.7042661" lon="11.9808419"><ele>542.5</ele><time>2026-04-11T14:09:26.658Z</time></trkpt><trkpt lat="42.7043154" lon="11.9806879"><ele>544.0</ele><time>2026-04-11T14:09:27.658Z</time></trkpt><trkpt lat="42.7043619" lon="11.9805132"><ele>545.5</ele><time>2026-04-11T14:09:28.658Z</time></trkpt><trkpt lat="42.7044146" lon="11.9803209"><ele>547.0</ele><time>2026-04-11T14:09:29.66Z</time></trkpt><trkpt lat="42.7044616" lon="11.9801025"><ele>549.5</ele><time>2026-04-11T14:09:30.665Z</time></trkpt><trkpt lat="42.7045128" lon="11.9799002"><ele>552.0</ele><time>2026-04-11T14:09:31.66Z</time></trkpt><trkpt lat="42.704545" lon="11.9797112"><ele>554.5</ele><time>2026-04-11T14:09:32.674Z</time></trkpt><trkpt lat="42.7045842" lon="11.979559"><ele>557.0</ele><time>2026-04-11T14:09:33.667Z</time></trkpt><trkpt lat="42.7046119" lon="11.9794321"><ele>557.0</ele><time>2026-04-11T14:09:34.653Z</time></trkpt><trkpt lat="42.7046471" lon="11.9793301"><ele>557.0</ele><time>2026-04-11T14:09:35.659Z</time></trkpt><trkpt lat="42.7046825" lon="11.979249"><ele>557.0</ele><time>2026-04-11T14:09:36.673Z</time></trkpt><trkpt lat="42.7047532" lon="11.9792146"><ele>557.0</ele><time>2026-04-11T14:09:37.664Z</time></trkpt><trkpt lat="42.7048386" lon="11.9791937"><ele>557.0</ele><time>2026-04-11T14:09:38.664Z</time></trkpt><trkpt lat="42.7049199" lon="11.9791925"><ele>557.0</ele><time>2026-04-11T14:09:39.671Z</time></trkpt><trkpt lat="42.7050047" lon="11.9792173"><ele>557.0</ele><time>2026-04-11T14:09:40.667Z</time></trkpt><trkpt lat="42.7050896" lon="11.9792884"><ele>557.0</ele><time>2026-04-11T14:09:41.67Z</time></trkpt><trkpt lat="42.7051568" lon="11.9792874"><ele>557.0</ele><time>2026-04-11T14:09:42.666Z</time></trkpt><trkpt lat="42.7052175" lon="11.9792353"><ele>557.0</ele><time>2026-04-11T14:09:43.663Z</time></trkpt><trkpt lat="42.7052548" lon="11.9791398"><ele>557.0</ele><time>2026-04-11T14:09:44.672Z</time></trkpt><trkpt lat="42.7052716" lon="11.9790213"><ele>557.0</ele><time>2026-04-11T14:09:45.652Z</time></trkpt><trkpt lat="42.7052791" lon="11.9788836"><ele>556.0</ele><time>2026-04-11T14:09:46.666Z</time></trkpt><trkpt lat="42.7053015" lon="11.9787205"><ele>555.0</ele><time>2026-04-11T14:09:47.667Z</time></trkpt><trkpt lat="42.705337" lon="11.9785436"><ele>554.0</ele><time>2026-04-11T14:09:48.663Z</time></trkpt><trkpt lat="42.7053814" lon="11.9783582"><ele>553.0</ele><time>2026-04-11T14:09:49.664Z</time></trkpt><trkpt lat="42.7054236" lon="11.9781771"><ele>553.0</ele><time>2026-04-11T14:09:50.664Z</time></trkpt><trkpt lat="42.7054653" lon="11.9780009"><ele>553.0</ele><time>2026-04-11T14:09:51.661Z</time></trkpt><trkpt lat="42.7055051" lon="11.9778247"><ele>553.0</ele><time>2026-04-11T14:09:52.676Z</time></trkpt><trkpt lat="42.7055408" lon="11.9776649"><ele>553.0</ele><time>2026-04-11T14:09:53.678Z</time></trkpt><trkpt lat="42.7055681" lon="11.9775135"><ele>553.0</ele><time>2026-04-11T14:09:54.672Z</time></trkpt><trkpt lat="42.705595" lon="11.9773737"><ele>553.0</ele><time>2026-04-11T14:09:55.685Z</time></trkpt><trkpt lat="42.7056243" lon="11.9772413"><ele>553.0</ele><time>2026-04-11T14:09:56.686Z</time></trkpt><trkpt lat="42.7056553" lon="11.9771028"><ele>553.0</ele><time>2026-04-11T14:09:57.687Z</time></trkpt><trkpt lat="42.7056871" lon="11.976954"><ele>553.0</ele><time>2026-04-11T14:09:58.652Z</time></trkpt><trkpt lat="42.7057225" lon="11.9767939"><ele>553.5</ele><time>2026-04-11T14:09:59.676Z</time></trkpt><trkpt lat="42.7057568" lon="11.9766256"><ele>554.0</ele><time>2026-04-11T14:10:00.696Z</time></trkpt><trkpt lat="42.7057905" lon="11.9764497"><ele>554.5</ele><time>2026-04-11T14:10:01.667Z</time></trkpt><trkpt lat="42.7058241" lon="11.9762655"><ele>555.0</ele><time>2026-04-11T14:10:02.68Z</time></trkpt><trkpt lat="42.7058617" lon="11.9760806"><ele>555.0</ele><time>2026-04-11T14:10:03.681Z</time></trkpt><trkpt lat="42.7059088" lon="11.9758985"><ele>555.0</ele><time>2026-04-11T14:10:04.69Z</time></trkpt><trkpt lat="42.7059567" lon="11.9757171"><ele>555.0</ele><time>2026-04-11T14:10:05.676Z</time></trkpt><trkpt lat="42.705995" lon="11.9755434"><ele>555.0</ele><time>2026-04-11T14:10:06.681Z</time></trkpt><trkpt lat="42.7060289" lon="11.9753869"><ele>555.0</ele><time>2026-04-11T14:10:07.681Z</time></trkpt><trkpt lat="42.7060603" lon="11.975242"><ele>555.0</ele><time>2026-04-11T14:10:08.666Z</time></trkpt><trkpt lat="42.7060966" lon="11.9751317"><ele>555.0</ele><time>2026-04-11T14:10:09.687Z</time></trkpt><trkpt lat="42.7061146" lon="11.9750412"><ele>555.0</ele><time>2026-04-11T14:10:10.671Z</time></trkpt><trkpt lat="42.7061631" lon="11.974954"><ele>555.0</ele><time>2026-04-11T14:10:12.658Z</time></trkpt><trkpt lat="42.7062582" lon="11.9750049"><ele>555.75</ele><time>2026-04-11T14:10:14.667Z</time></trkpt><trkpt lat="42.7063364" lon="11.9750607"><ele>556.5</ele><time>2026-04-11T14:10:15.67Z</time></trkpt><trkpt lat="42.7064315" lon="11.975132"><ele>557.25</ele><time>2026-04-11T14:10:16.666Z</time></trkpt><trkpt lat="42.706538" lon="11.9752148"><ele>558.0</ele><time>2026-04-11T14:10:17.67Z</time></trkpt><trkpt lat="42.7066585" lon="11.9753108"><ele>558.0</ele><time>2026-04-11T14:10:18.67Z</time></trkpt><trkpt lat="42.7067821" lon="11.9754125"><ele>558.0</ele><time>2026-04-11T14:10:19.674Z</time></trkpt><trkpt lat="42.7068971" lon="11.9755063"><ele>558.0</ele><time>2026-04-11T14:10:20.666Z</time></trkpt><trkpt lat="42.7070132" lon="11.9755969"><ele>558.0</ele><time>2026-04-11T14:10:21.669Z</time></trkpt><trkpt lat="42.7071325" lon="11.9756802"><ele>558.25</ele><time>2026-04-11T14:10:22.66Z</time></trkpt><trkpt lat="42.7072547" lon="11.9757475"><ele>558.5</ele><time>2026-04-11T14:10:23.684Z</time></trkpt><trkpt lat="42.7073788" lon="11.9757961"><ele>558.75</ele><time>2026-04-11T14:10:24.674Z</time></trkpt><trkpt lat="42.707501" lon="11.9758433"><ele>559.0</ele><time>2026-04-11T14:10:25.662Z</time></trkpt><trkpt lat="42.7076307" lon="11.9758602"><ele>559.25</ele><time>2026-04-11T14:10:26.67Z</time></trkpt><trkpt lat="42.7077612" lon="11.9758611"><ele>559.5</ele><time>2026-04-11T14:10:27.664Z</time></trkpt><trkpt lat="42.7078892" lon="11.9758457"><ele>559.75</ele><time>2026-04-11T14:10:28.659Z</time></trkpt><trkpt lat="42.7080124" lon="11.9758256"><ele>560.0</ele><time>2026-04-11T14:10:29.663Z</time></trkpt><trkpt lat="42.7081316" lon="11.9757999"><ele>559.5</ele><time>2026-04-11T14:10:30.685Z</time></trkpt><trkpt lat="42.7082496" lon="11.9757748"><ele>559.0</ele><time>2026-04-11T14:10:31.658Z</time></trkpt><trkpt lat="42.7083712" lon="11.9757586"><ele>558.5</ele><time>2026-04-11T14:10:32.652Z</time></trkpt><trkpt lat="42.7084927" lon="11.975737"><ele>558.0</ele><time>2026-04-11T14:10:33.667Z</time></trkpt><trkpt lat="42.7086133" lon="11.975737"><ele>557.5</ele><time>2026-04-11T14:10:34.652Z</time></trkpt><trkpt lat="42.7087341" lon="11.9757532"><ele>557.0</ele><time>2026-04-11T14:10:35.667Z</time></trkpt><trkpt lat="42.7088543" lon="11.9757816"><ele>556.5</ele><time>2026-04-11T14:10:36.668Z</time></trkpt><trkpt lat="42.7089753" lon="11.9758148"><ele>556.0</ele><time>2026-04-11T14:10:37.671Z</time></trkpt><trkpt lat="42.7090933" lon="11.9758584"><ele>555.75</ele><time>2026-04-11T14:10:38.674Z</time></trkpt><trkpt lat="42.7092119" lon="11.9759103"><ele>555.5</ele><time>2026-04-11T14:10:39.67Z</time></trkpt><trkpt lat="42.7093244" lon="11.9759617"><ele>555.25</ele><time>2026-04-11T14:10:40.663Z</time></trkpt><trkpt lat="42.709432" lon="11.9760124"><ele>555.0</ele><time>2026-04-11T14:10:41.659Z</time></trkpt><trkpt lat="42.7095325" lon="11.9760626"><ele>554.4</ele><time>2026-04-11T14:10:42.666Z</time></trkpt><trkpt lat="42.7096248" lon="11.9761043"><ele>553.8</ele><time>2026-04-11T14:10:43.67Z</time></trkpt><trkpt lat="42.7097026" lon="11.9761365"><ele>553.2</ele><time>2026-04-11T14:10:44.658Z</time></trkpt><trkpt lat="42.7097688" lon="11.9761414"><ele>552.6</ele><time>2026-04-11T14:10:45.668Z</time></trkpt><trkpt lat="42.7098476" lon="11.976025"><ele>552.0</ele><time>2026-04-11T14:10:47.673Z</time></trkpt><trkpt lat="42.7098709" lon="11.9759041"><ele>552.0</ele><time>2026-04-11T14:10:48.668Z</time></trkpt><trkpt lat="42.709902" lon="11.9757478"><ele>552.0</ele><time>2026-04-11T14:10:49.658Z</time></trkpt><trkpt lat="42.7099391" lon="11.9755727"><ele>552.0</ele><time>2026-04-11T14:10:50.67Z</time></trkpt><trkpt lat="42.7099824" lon="11.9753723"><ele>552.0</ele><time>2026-04-11T14:10:51.666Z</time></trkpt><trkpt lat="42.7100338" lon="11.975133"><ele>551.6666666666666</ele><time>2026-04-11T14:10:52.666Z</time></trkpt><trkpt lat="42.7100874" lon="11.9748659"><ele>551.3333333333333</ele><time>2026-04-11T14:10:53.677Z</time></trkpt><trkpt lat="42.7101408" lon="11.9746143"><ele>551.0</ele><time>2026-04-11T14:10:54.662Z</time></trkpt><trkpt lat="42.7101892" lon="11.9743792"><ele>551.0</ele><time>2026-04-11T14:10:55.669Z</time></trkpt><trkpt lat="42.7102263" lon="11.9741566"><ele>551.0</ele><time>2026-04-11T14:10:56.681Z</time></trkpt><trkpt lat="42.7102607" lon="11.9739441"><ele>551.0</ele><time>2026-04-11T14:10:57.684Z</time></trkpt><trkpt lat="42.710268" lon="11.9737402"><ele>551.0</ele><time>2026-04-11T14:10:58.67Z</time></trkpt><trkpt lat="42.7102782" lon="11.9735478"><ele>551.0</ele><time>2026-04-11T14:10:59.675Z</time></trkpt><trkpt lat="42.7103389" lon="11.9733764"><ele>551.0</ele><time>2026-04-11T14:11:00.667Z</time></trkpt><trkpt lat="42.7104113" lon="11.9732286"><ele>551.0</ele><time>2026-04-11T14:11:01.664Z</time></trkpt><trkpt lat="42.71049" lon="11.9730829"><ele>551.0</ele><time>2026-04-11T14:11:02.678Z</time></trkpt><trkpt lat="42.7105664" lon="11.9729569"><ele>551.0</ele><time>2026-04-11T14:11:03.653Z</time></trkpt><trkpt lat="42.7106482" lon="11.9728451"><ele>551.0</ele><time>2026-04-11T14:11:04.658Z</time></trkpt><trkpt lat="42.7107434" lon="11.9727777"><ele>551.0</ele><time>2026-04-11T14:11:05.662Z</time></trkpt><trkpt lat="42.7108605" lon="11.9727115"><ele>551.0</ele><time>2026-04-11T14:11:06.687Z</time></trkpt><trkpt lat="42.7110054" lon="11.9727024"><ele>551.0</ele><time>2026-04-11T14:11:07.658Z</time></trkpt><trkpt lat="42.7111572" lon="11.9727083"><ele>551.0</ele><time>2026-04-11T14:11:08.681Z</time></trkpt><trkpt lat="42.711303" lon="11.9727259"><ele>551.0</ele><time>2026-04-11T14:11:09.672Z</time></trkpt><trkpt lat="42.7114298" lon="11.9727347"><ele>549.75</ele><time>2026-04-11T14:11:10.666Z</time></trkpt><trkpt lat="42.7115474" lon="11.9727574"><ele>548.5</ele><time>2026-04-11T14:11:11.67Z</time></trkpt><trkpt lat="42.7116635" lon="11.9727483"><ele>547.25</ele><time>2026-04-11T14:11:12.666Z</time></trkpt><trkpt lat="42.7117729" lon="11.9726884"><ele>546.0</ele><time>2026-04-11T14:11:13.684Z</time></trkpt><trkpt lat="42.711873" lon="11.9725784"><ele>544.6666666666666</ele><time>2026-04-11T14:11:14.678Z</time></trkpt><trkpt lat="42.7119711" lon="11.9724293"><ele>543.3333333333333</ele><time>2026-04-11T14:11:15.67Z</time></trkpt><trkpt lat="42.7120782" lon="11.9722517"><ele>542.0</ele><time>2026-04-11T14:11:16.677Z</time></trkpt><trkpt lat="42.7121847" lon="11.972072"><ele>542.0</ele><time>2026-04-11T14:11:17.671Z</time></trkpt><trkpt lat="42.712283" lon="11.9718912"><ele>542.0</ele><time>2026-04-11T14:11:18.691Z</time></trkpt><trkpt lat="42.7123746" lon="11.9717187"><ele>542.0</ele><time>2026-04-11T14:11:19.669Z</time></trkpt><trkpt lat="42.7124579" lon="11.9715651"><ele>542.6</ele><time>2026-04-11T14:11:20.682Z</time></trkpt><trkpt lat="42.7125403" lon="11.9714167"><ele>543.2</ele><time>2026-04-11T14:11:21.668Z</time></trkpt><trkpt lat="42.7125985" lon="11.9713016"><ele>543.8</ele><time>2026-04-11T14:11:22.671Z</time></trkpt><trkpt lat="42.7126413" lon="11.9712101"><ele>544.4</ele><time>2026-04-11T14:11:23.657Z</time></trkpt><trkpt lat="42.712681" lon="11.9711255"><ele>545.0</ele><time>2026-04-11T14:11:24.667Z</time></trkpt><trkpt lat="42.7127304" lon="11.9710078"><ele>545.0</ele><time>2026-04-11T14:11:26.669Z</time></trkpt><trkpt lat="42.7127557" lon="11.970876"><ele>546.0</ele><time>2026-04-11T14:11:45.671Z</time></trkpt><trkpt lat="42.7127496" lon="11.9707745"><ele>549.0</ele><time>2026-04-11T14:11:47.671Z</time></trkpt></trkseg></trk></gpx>